Time;durP1;ratioP1;P1;durP2;ratioP2;P2;SDS_P1;SDS_P2;PMS_P1;PMS_P2;Temp;Humidity;BMP_temperature;BMP_pressure;BME280_temperature;BME280_humidity;BME280_pressure;Samples;Min_cycle;Max_cycle;Signal;HPM_P1;HPM_P2
2022/04/02 00:01:02;;;;;;;;;;;2.50;99.90;;;;;;2603120;54;20746;31
2022/04/02 00:03:39;;;;;;;;;;;2.50;99.90;;;;;;2603339;54;19941;31
2022/04/02 00:06:14;;;;;;;;;;;2.50;99.90;;;;;;2602530;54;19950;31
2022/04/02 00:08:51;;;;;;;;;;;2.50;99.90;;;;;;2621689;46;20511;31
2022/04/02 00:11:26;;;;;;;;;;;2.50;99.90;;;;;;2773293;31;21479;31
2022/04/02 00:14:01;;;;;;;;;;;2.50;99.90;;;;;;2621336;46;20714;31
2022/04/02 00:16:35;;;;;;;;;;;2.40;99.90;;;;;;2602467;54;20783;31
2022/04/02 00:19:12;;;;;;;;;;;2.40;99.90;;;;;;2621526;46;20729;31
2022/04/02 00:21:49;;;;;;;;;;;2.40;99.90;;;;;;2603142;54;19939;31
2022/04/02 00:24:22;;;;;;;;;;;2.40;99.90;;;;;;2621379;46;22391;31
2022/04/02 00:26:58;;;;;;;;;;;2.30;99.90;;;;;;2621603;46;20695;31
2022/04/02 00:29:34;;;;;;;;;;;2.30;99.90;;;;;;2621455;46;19934;31
2022/04/02 00:32:07;;;;;;;;;;;2.90;99.90;;;;;;2603119;54;21539;31
2022/04/02 00:34:42;;;;;;;;;;;2.30;99.90;;;;;;2621596;46;20728;31
2022/04/02 00:37:18;;;;;;;;;;;2.30;99.90;;;;;;2621344;46;19942;31
2022/04/02 00:39:53;;;;;;;;;;;2.80;99.90;;;;;;2621416;46;20057;31
2022/04/02 00:42:27;;;;;;;;;;;2.20;99.90;;;;;;2603091;54;19941;31
2022/04/02 00:45:02;;;;;;;;;;;2.20;99.90;;;;;;2602117;54;19932;31
2022/04/02 00:47:36;;;;;;;;;;;2.20;99.90;;;;;;2602058;54;19942;31
2022/04/02 00:50:13;;;;;;;;;;;2.20;99.90;;;;;;2602039;54;19957;31
2022/04/02 00:52:54;;;;;;;;;;;2.20;99.90;;;;;;2603185;54;19935;31
2022/04/02 00:55:30;;;;;;;;;;;2.10;99.90;;;;;;2603761;47;20021;31
2022/04/02 00:58:06;;;;;;;;;;;2.10;99.90;;;;;;2602307;54;20790;31
2022/04/02 01:00:41;;;;;;;;;;;2.10;99.90;;;;;;2602956;54;20778;31
2022/04/02 01:03:18;;;;;;;;;;;2.10;99.90;;;;;;2621515;47;19934;31
2022/04/02 01:05:53;;;;;;;;;;;2.10;99.90;;;;;;2701563;39;22203;31
2022/04/02 01:08:35;;;;;;;;;;;2.10;99.90;;;;;;2602736;54;19979;31
2022/04/02 01:11:12;;;;;;;;;;;2.00;99.90;;;;;;2602770;54;19934;31
2022/04/02 01:13:53;;;;;;;;;;;2.10;99.90;;;;;;2621392;47;20010;31
2022/04/02 01:16:27;;;;;;;;;;;2.00;99.90;;;;;;2620304;47;20821;31
2022/04/02 01:19:09;;;;;;;;;;;2.00;99.90;;;;;;2602901;54;21216;31
2022/04/02 01:21:49;;;;;;;;;;;2.10;99.90;;;;;;2720068;39;22204;31
2022/04/02 01:24:33;;;;;;;;;;;2.10;99.90;;;;;;2621525;47;19934;31
2022/04/02 01:27:07;;;;;;;;;;;2.10;99.90;;;;;;2602898;54;20752;31
2022/04/02 01:29:42;;;;;;;;;;;2.10;99.90;;;;;;2602647;54;19934;31
2022/04/02 01:32:20;;;;;;;;;;;2.10;99.90;;;;;;2609993;47;20829;31
2022/04/02 01:35:02;;;;;;;;;;;2.00;99.90;;;;;;2602015;54;20018;31
2022/04/02 01:37:41;;;;;;;;;;;2.10;99.90;;;;;;2601948;54;19950;31
2022/04/02 01:40:19;;;;;;;;;;;2.00;99.90;;;;;;2602621;54;19934;31
2022/04/02 01:42:53;;;;;;;;;;;2.00;99.90;;;;;;2602902;54;19966;31
2022/04/02 01:45:30;;;;;;;;;;;2.00;99.90;;;;;;2602550;54;20013;31
2022/04/02 01:48:08;;;;;;;;;;;1.90;99.90;;;;;;2602754;54;20784;31
2022/04/02 01:50:52;;;;;;;;;;;1.80;99.90;;;;;;2621282;47;20744;31
2022/04/02 01:53:36;;;;;;;;;;;1.70;99.90;;;;;;2602780;54;20709;31
2022/04/02 01:56:14;;;;;;;;;;;1.70;99.90;;;;;;2602642;54;20773;31
2022/04/02 01:58:55;;;;;;;;;;;1.60;99.90;;;;;;2601632;54;19942;31
2022/04/02 02:01:32;;;;;;;;;;;1.50;99.90;;;;;;2621228;47;19938;31
2022/04/02 02:04:07;;;;;;;;;;;1.50;99.90;;;;;;2603635;54;20698;31
2022/04/02 02:06:40;;;;;;;;;;;1.40;99.90;;;;;;2602692;54;20767;31
2022/04/02 02:09:24;;;;;;;;;;;1.30;99.90;;;;;;2603376;54;19980;31
2022/04/02 02:12:02;;;;;;;;;;;1.30;99.90;;;;;;2603452;54;19958;31
2022/04/02 02:14:50;;;;;;;;;;;1.20;99.90;;;;;;2603308;54;20810;31
2022/04/02 02:17:25;;;;;;;;;;;1.10;99.90;;;;;;2603586;54;20736;31
2022/04/02 02:20:08;;;;;;;;;;;1.10;99.90;;;;;;2603271;54;20088;31
2022/04/02 02:22:46;;;;;;;;;;;1.00;99.90;;;;;;2603643;54;20775;31
2022/04/02 02:25:24;;;;;;;;;;;1.00;99.90;;;;;;2603452;54;19938;31
2022/04/02 02:27:58;;;;;;;;;;;0.90;99.90;;;;;;2603460;54;20655;31
2022/04/02 02:30:33;;;;;;;;;;;0.90;99.90;;;;;;2621719;46;19958;31
2022/04/02 02:35:59;;;;;;;;;;;0.90;99.90;;;;;;2603470;54;20762;31
2022/04/02 02:38:49;;;;;;;;;;;0.90;99.90;;;;;;2603255;54;19934;31
2022/04/02 02:41:36;;;;;;;;;;;0.80;99.90;;;;;;2603307;54;20005;31
2022/04/02 02:44:17;;;;;;;;;;;0.80;99.90;;;;;;2614368;46;20804;31
2022/04/02 02:46:56;;;;;;;;;;;0.70;99.90;;;;;;2603289;54;20811;31
2022/04/02 02:49:35;;;;;;;;;;;0.70;99.90;;;;;;2621800;46;19986;31
2022/04/02 02:52:14;;;;;;;;;;;0.70;99.90;;;;;;2621789;46;19934;31
2022/04/02 02:54:51;;;;;;;;;;;0.70;99.90;;;;;;2603376;54;19942;31
2022/04/02 02:57:27;;;;;;;;;;;0.70;99.90;;;;;;2621888;46;19934;31
2022/04/02 03:00:05;;;;;;;;;;;0.70;99.90;;;;;;2621879;46;19939;31
2022/04/02 03:02:44;;;;;;;;;;;0.60;99.90;;;;;;2621801;46;19934;31
2022/04/02 03:05:23;;;;;;;;;;;0.60;99.90;;;;;;2603243;54;19942;31
2022/04/02 03:08:01;;;;;;;;;;;0.60;99.90;;;;;;2621743;46;19985;31
2022/04/02 03:10:58;;;;;;;;;;;0.70;99.90;;;;;;2603133;54;19946;31
2022/04/02 03:13:38;;;;;;;;;;;0.70;99.90;;;;;;2621323;46;20017;31
2022/04/02 03:16:17;;;;;;;;;;;0.60;99.90;;;;;;2621904;46;20746;31
2022/04/02 03:19:06;;;;;;;;;;;0.60;99.90;;;;;;2622029;46;19941;31
2022/04/02 03:21:42;;;;;;;;;;;0.60;99.90;;;;;;2621580;46;19962;31
2022/04/02 03:24:16;;;;;;;;;;;0.50;99.90;;;;;;2603335;54;19942;31
2022/04/02 03:26:50;;;;;;;;;;;0.50;99.90;;;;;;2621596;46;19934;31
2022/04/02 03:29:39;;;;;;;;;;;0.50;99.90;;;;;;2603245;54;20682;31
2022/04/02 03:32:22;;;;;;;;;;;0.50;99.90;;;;;;2621909;46;20770;31
2022/04/02 03:34:57;;;;;;;;;;;0.40;99.90;;;;;;2603076;54;19934;31
2022/04/02 03:37:36;;;;;;;;;;;0.40;99.90;;;;;;2603291;54;20780;31
2022/04/02 03:40:14;;;;;;;;;;;0.40;99.90;;;;;;2621520;46;19942;31
2022/04/02 03:42:49;;;;;;;;;;;0.40;99.90;;;;;;2621736;46;20724;31
2022/04/02 03:45:30;;;;;;;;;;;0.40;99.90;;;;;;2621838;46;19954;31
2022/04/02 03:48:11;;;;;;;;;;;0.40;99.90;;;;;;2621881;46;19949;31
2022/04/02 03:50:49;;;;;;;;;;;0.40;99.90;;;;;;2621687;46;20008;31
2022/04/02 03:53:28;;;;;;;;;;;0.30;99.90;;;;;;2610422;46;19946;31
2022/04/02 03:56:10;;;;;;;;;;;0.30;99.90;;;;;;2621831;46;20759;31
2022/04/02 03:58:50;;;;;;;;;;;0.30;99.90;;;;;;2610259;46;20783;31
2022/04/02 04:01:25;;;;;;;;;;;0.30;99.90;;;;;;2602223;54;20021;31
2022/04/02 04:04:04;;;;;;;;;;;0.30;99.90;;;;;;2603084;54;20796;31
2022/04/02 04:06:40;;;;;;;;;;;0.30;99.90;;;;;;2603129;54;19934;31
2022/04/02 04:09:17;;;;;;;;;;;0.30;99.90;;;;;;2621688;46;20660;31
2022/04/02 04:11:55;;;;;;;;;;;0.30;99.90;;;;;;2603030;54;19977;31
2022/04/02 04:14:34;;;;;;;;;;;0.20;99.90;;;;;;2603198;54;20763;31
2022/04/02 04:17:08;;;;;;;;;;;0.20;99.90;;;;;;2602726;54;20816;31
2022/04/02 04:19:47;;;;;;;;;;;0.20;99.90;;;;;;2621465;46;20772;31
2022/04/02 04:22:23;;;;;;;;;;;0.20;99.90;;;;;;2602401;54;19939;31
2022/04/02 04:25:01;;;;;;;;;;;0.20;99.90;;;;;;2601922;54;20724;31
2022/04/02 04:27:41;;;;;;;;;;;0.20;99.90;;;;;;2606820;46;19942;31
2022/04/02 04:30:16;;;;;;;;;;;0.10;99.90;;;;;;2618310;46;20823;31
2022/04/02 04:32:52;;;;;;;;;;;0.20;99.90;;;;;;2601947;54;19943;31
2022/04/02 04:35:27;;;;;;;;;;;0.10;99.90;;;;;;2602455;54;21479;31
2022/04/02 04:38:00;;;;;;;;;;;0.10;99.90;;;;;;2602814;54;20713;31
2022/04/02 04:40:41;;;;;;;;;;;0.10;99.90;;;;;;2602957;54;20779;31
2022/04/02 04:43:16;;;;;;;;;;;0.10;99.90;;;;;;2621381;46;19942;31
2022/04/02 04:45:52;;;;;;;;;;;0.10;99.90;;;;;;2621450;46;19935;31
2022/04/02 04:48:29;;;;;;;;;;;1.10;99.90;;;;;;2603013;54;19935;31
2022/04/02 04:51:10;;;;;;;;;;;0.10;99.90;;;;;;2621303;46;19989;31
2022/04/02 04:53:46;;;;;;;;;;;0.10;99.90;;;;;;2602113;54;19949;31
2022/04/02 04:56:21;;;;;;;;;;;0.10;99.90;;;;;;2617745;47;20789;31
2022/04/02 04:58:56;;;;;;;;;;;0.10;99.90;;;;;;2603025;54;19994;31
2022/04/02 05:01:36;;;;;;;;;;;0.10;99.90;;;;;;2608043;47;19934;31
2022/04/02 05:04:11;;;;;;;;;;;0.10;99.90;;;;;;2621314;47;19942;31
2022/04/02 05:06:55;;;;;;;;;;;0.10;99.90;;;;;;2602795;54;19941;31
2022/04/02 05:09:31;;;;;;;;;;;0.10;99.90;;;;;;2602804;54;19934;31
2022/04/02 05:12:11;;;;;;;;;;;0.10;99.90;;;;;;2602996;54;20907;31
2022/04/02 05:14:51;;;;;;;;;;;0.10;99.90;;;;;;2602586;54;19934;31
2022/04/02 05:17:29;;;;;;;;;;;0.10;99.90;;;;;;2602773;54;20796;31
2022/04/02 05:20:04;;;;;;;;;;;0.10;99.90;;;;;;2602693;54;20687;31
2022/04/02 05:22:42;;;;;;;;;;;0.10;99.90;;;;;;2602715;54;19998;31
2022/04/02 05:25:17;;;;;;;;;;;0.10;99.90;;;;;;2621428;47;20724;31
2022/04/02 05:27:54;;;;;;;;;;;0.10;99.90;;;;;;2602761;54;20723;31
2022/04/02 05:30:33;;;;;;;;;;;0.10;99.90;;;;;;2602438;54;19941;31
2022/04/02 05:33:09;;;;;;;;;;;0.00;99.90;;;;;;2621443;47;19942;31
2022/04/02 05:36:03;;;;;;;;;;;0.00;99.90;;;;;;2602725;54;19942;31
2022/04/02 05:38:41;;;;;;;;;;;0.00;99.90;;;;;;2603548;54;19935;31
2022/04/02 05:41:14;;;;;;;;;;;-0.10;99.90;;;;;;2603492;54;19935;31
2022/04/02 05:43:51;;;;;;;;;;;-0.10;99.90;;;;;;2622030;46;19989;31
2022/04/02 05:46:23;;;;;;;;;;;0.00;99.90;;;;;;2622075;46;20821;31
2022/04/02 05:48:58;;;;;;;;;;;0.00;99.90;;;;;;2622174;46;20691;31
2022/04/02 05:51:35;;;;;;;;;;;0.00;99.90;;;;;;2602648;54;20551;31
2022/04/02 05:54:12;;;;;;;;;;;0.00;99.90;;;;;;2602753;54;19946;31
2022/04/02 05:56:54;;;;;;;;;;;0.10;99.90;;;;;;2621941;46;20034;31
2022/04/02 05:59:29;;;;;;;;;;;0.10;99.90;;;;;;2603690;54;19934;31
2022/04/02 06:02:04;;;;;;;;;;;0.20;99.90;;;;;;2621905;46;19957;31
2022/04/02 06:04:42;;;;;;;;;;;0.20;99.90;;;;;;2603291;54;20043;31
2022/04/02 06:07:19;;;;;;;;;;;0.20;99.90;;;;;;2622084;46;19934;31
2022/04/02 06:09:55;;;;;;;;;;;0.20;99.90;;;;;;2603635;54;20740;31
2022/04/02 06:12:32;;;;;;;;;;;0.30;99.90;;;;;;2701791;39;21531;31
2022/04/02 06:15:08;;;;;;;;;;;0.30;99.90;;;;;;2603261;54;19954;31
2022/04/02 06:17:43;;;;;;;;;;;0.40;99.90;;;;;;2622035;46;19939;31
2022/04/02 06:20:18;;;;;;;;;;;0.40;99.90;;;;;;2621007;46;20001;31
2022/04/02 06:22:53;;;;;;;;;;;0.40;99.90;;;;;;2622162;46;20689;31
2022/04/02 06:25:27;;;;;;;;;;;0.40;99.90;;;;;;2603690;54;19961;31
2022/04/02 06:28:05;;;;;;;;;;;0.40;99.90;;;;;;2621802;46;19989;31
2022/04/02 06:30:40;;;;;;;;;;;0.50;99.90;;;;;;2603540;54;20760;31
2022/04/02 06:33:15;;;;;;;;;;;0.50;99.90;;;;;;2603554;54;19934;31
2022/04/02 06:35:51;;;;;;;;;;;0.60;99.90;;;;;;2603258;54;20731;31
2022/04/02 06:38:24;;;;;;;;;;;0.70;99.90;;;;;;2603470;54;21546;31
2022/04/02 06:40:59;;;;;;;;;;;0.70;99.90;;;;;;2603220;54;20658;31
2022/04/02 06:43:41;;;;;;;;;;;0.80;99.90;;;;;;2621825;46;19941;31
2022/04/02 06:46:18;;;;;;;;;;;0.80;99.90;;;;;;2621778;46;20034;31
2022/04/02 06:49:01;;;;;;;;;;;0.90;99.90;;;;;;2603240;54;19938;31
2022/04/02 06:51:34;;;;;;;;;;;0.90;99.90;;;;;;2603402;54;19935;31
2022/04/02 06:54:09;;;;;;;;;;;0.90;99.90;;;;;;2621836;46;19950;31
2022/04/02 06:56:45;;;;;;;;;;;1.00;99.90;;;;;;2603346;54;19935;31
2022/04/02 06:59:23;;;;;;;;;;;1.10;99.90;;;;;;2621854;46;20703;31
2022/04/02 07:01:57;;;;;;;;;;;1.10;99.90;;;;;;2621906;46;19993;31
2022/04/02 07:04:32;;;;;;;;;;;1.20;99.90;;;;;;2622187;46;20677;31
2022/04/02 07:07:09;;;;;;;;;;;1.20;99.90;;;;;;2603556;54;19946;31
2022/04/02 07:09:42;;;;;;;;;;;1.30;99.90;;;;;;2603403;54;20771;31
2022/04/02 07:12:20;;;;;;;;;;;1.30;99.90;;;;;;2603304;54;20835;31
2022/04/02 07:14:57;;;;;;;;;;;1.40;99.90;;;;;;2603205;54;20765;31
2022/04/02 07:17:34;;;;;;;;;;;1.50;99.90;;;;;;2603240;54;20887;31
2022/04/02 07:20:10;;;;;;;;;;;1.60;99.90;;;;;;2604541;46;19950;31
2022/04/02 07:22:45;;;;;;;;;;;1.60;99.90;;;;;;2603072;54;19939;31
2022/04/02 07:25:20;;;;;;;;;;;1.70;99.90;;;;;;2621985;46;20011;31
2022/04/02 07:28:03;;;;;;;;;;;1.70;99.90;;;;;;2603338;54;20721;31
2022/04/02 07:30:41;;;;;;;;;;;1.80;99.90;;;;;;2602999;54;20740;31
2022/04/02 07:33:27;;;;;;;;;;;1.90;99.90;;;;;;2603303;54;19962;31
2022/04/02 07:36:04;;;;;;;;;;;2.00;99.90;;;;;;2602310;54;20789;31
2022/04/02 07:38:42;;;;;;;;;;;2.10;99.90;;;;;;2603139;54;19973;31
2022/04/02 07:41:20;;;;;;;;;;;2.10;99.90;;;;;;2602584;54;20706;31
2022/04/02 07:43:53;;;;;;;;;;;2.10;99.90;;;;;;2603063;54;19942;31
2022/04/02 07:46:32;;;;;;;;;;;2.10;99.90;;;;;;2602939;54;20746;31
2022/04/02 07:49:12;;;;;;;;;;;2.10;99.90;;;;;;2602913;54;19934;31
2022/04/02 07:51:47;;;;;;;;;;;2.20;99.90;;;;;;2602599;54;20772;31
2022/04/02 07:54:24;;;;;;;;;;;2.20;99.90;;;;;;2602886;54;19934;31
2022/04/02 07:56:59;;;;;;;;;;;2.20;99.90;;;;;;2602986;54;19942;31
2022/04/02 07:59:36;;;;;;;;;;;2.30;99.90;;;;;;2609713;46;19956;31
2022/04/02 08:05:10;;;;;;;;;;;2.40;99.90;;;;;;2603040;54;20724;31
2022/04/02 08:07:49;;;;;;;;;;;2.50;99.90;;;;;;2603300;54;20713;31
2022/04/02 08:10:23;;;;;;;;;;;2.60;99.90;;;;;;2621316;46;22397;31
2022/04/02 08:12:57;;;;;;;;;;;2.70;99.90;;;;;;2603066;54;21030;31
2022/04/02 08:15:28;;;;;;;;;;;2.80;99.90;;;;;;2701672;39;22318;31
2022/04/02 08:18:16;;;;;;;;;;;2.80;99.90;;;;;;2603155;54;19935;31
2022/04/02 08:20:50;;;;;;;;;;;2.90;99.90;;;;;;2603125;54;19935;31
2022/04/02 08:23:26;;;;;;;;;;;2.90;99.90;;;;;;2602281;54;19950;31
2022/04/02 08:26:12;;;;;;;;;;;2.90;99.90;;;;;;2602825;54;19935;31
2022/04/02 08:28:52;;;;;;;;;;;3.00;99.90;;;;;;2602949;54;19930;31
2022/04/02 08:31:29;;;;;;;;;;;3.00;99.90;;;;;;2602974;54;19941;31
2022/04/02 08:37:02;;;;;;;;;;;3.00;99.90;;;;;;2603190;54;19961;31
2022/04/02 08:39:39;;;;;;;;;;;3.00;99.90;;;;;;2621438;46;20001;31
2022/04/02 08:42:27;;;;;;;;;;;3.10;99.90;;;;;;2602632;54;19934;31
2022/04/02 08:45:09;;;;;;;;;;;3.10;99.90;;;;;;2603070;54;20833;31
2022/04/02 08:47:59;;;;;;;;;;;3.10;99.90;;;;;;2602940;54;19958;31
2022/04/02 08:50:44;;;;;;;;;;;3.10;99.90;;;;;;2602883;54;20800;31
2022/04/02 08:53:23;;;;;;;;;;;3.20;99.90;;;;;;2602950;54;19934;31
2022/04/02 08:55:59;;;;;;;;;;;3.20;99.90;;;;;;2602856;54;19935;31
2022/04/02 08:58:40;;;;;;;;;;;3.30;99.90;;;;;;2621678;47;20627;31
2022/04/02 09:04:10;;;;;;;;;;;3.50;99.90;;;;;;2719551;39;22349;31
2022/04/02 09:07:00;;;;;;;;;;;3.50;99.90;;;;;;2602846;54;20789;31
2022/04/02 09:09:39;;;;;;;;;;;3.50;99.90;;;;;;2602734;54;19946;31
2022/04/02 09:12:18;;;;;;;;;;;3.60;99.90;;;;;;2622332;47;19957;31
2022/04/02 09:14:57;;;;;;;;;;;3.60;99.90;;;;;;2603628;54;19989;31
2022/04/02 09:17:36;;;;;;;;;;;3.60;99.90;;;;;;2603614;54;19934;31
2022/04/02 09:20:15;;;;;;;;;;;3.70;99.90;;;;;;2603496;54;19934;31
2022/04/02 09:23:04;;;;;;;;;;;3.80;99.90;;;;;;2603569;54;19934;31
2022/04/02 09:25:53;;;;;;;;;;;3.90;99.90;;;;;;2603686;54;20764;31
2022/04/02 09:31:15;;;;;;;;;;;4.00;99.90;;;;;;2603589;54;19935;31
2022/04/02 09:34:07;;;;;;;;;;;4.00;99.90;;;;;;2603488;54;19941;31
2022/04/02 09:36:48;;;;;;;;;;;4.10;99.90;;;;;;2603527;54;20721;31
2022/04/02 09:39:24;;;;;;;;;;;4.20;99.90;;;;;;2603437;54;19989;31
2022/04/02 09:42:03;;;;;;;;;;;4.30;99.90;;;;;;2602761;54;21808;31
2022/04/02 09:44:53;;;;;;;;;;;4.40;99.90;;;;;;2622040;46;20826;31
2022/04/02 09:47:32;;;;;;;;;;;4.60;99.90;;;;;;2603258;54;20647;31
2022/04/02 09:50:10;;;;;;;;;;;4.70;99.90;;;;;;2603651;54;20008;31
2022/04/02 09:52:43;;;;;;;;;;;4.70;99.90;;;;;;2621989;46;19934;31
2022/04/02 09:55:26;;;;;;;;;;;4.70;99.90;;;;;;2621787;46;20849;31
2022/04/02 09:58:10;;;;;;;;;;;4.80;99.90;;;;;;2603578;54;20811;31
2022/04/02 10:00:48;;;;;;;;;;;4.90;99.90;;;;;;2603633;54;20742;31
2022/04/02 10:03:28;;;;;;;;;;;4.90;99.90;;;;;;2622053;46;19941;31
2022/04/02 10:06:23;;;;;;;;;;;4.80;99.90;;;;;;2603396;54;20797;31
2022/04/02 10:08:57;;;;;;;;;;;4.80;99.90;;;;;;2603183;54;20653;31
2022/04/02 10:11:38;;;;;;;;;;;4.80;99.90;;;;;;2603447;54;20021;31
2022/04/02 10:14:13;;;;;;;;;;;4.80;99.90;;;;;;2603523;54;19941;31
2022/04/02 10:16:47;;;;;;;;;;;4.80;99.90;;;;;;2621603;46;20703;31
2022/04/02 10:19:23;;;;;;;;;;;4.80;99.90;;;;;;2621599;46;20749;31
2022/04/02 10:21:58;;;;;;;;;;;4.80;99.90;;;;;;2603286;54;19931;31
2022/04/02 10:24:37;;;;;;;;;;;5.90;99.90;;;;;;2621651;46;19935;31
2022/04/02 10:27:14;;;;;;;;;;;4.90;99.90;;;;;;2621785;46;19934;31
2022/04/02 10:30:00;;;;;;;;;;;4.90;99.90;;;;;;2603331;54;20687;31
2022/04/02 10:32:37;;;;;;;;;;;5.00;99.90;;;;;;2603478;54;19938;31
2022/04/02 10:35:12;;;;;;;;;;;5.00;99.90;;;;;;2602459;54;20007;31
2022/04/02 10:37:53;;;;;;;;;;;5.10;99.90;;;;;;2602778;54;20824;31
2022/04/02 10:40:28;;;;;;;;;;;5.10;99.90;;;;;;2602557;54;20693;31
2022/04/02 10:43:13;;;;;;;;;;;5.20;99.90;;;;;;2603297;54;20758;31
2022/04/02 10:45:50;;;;;;;;;;;5.20;99.90;;;;;;2603485;54;20690;31
2022/04/02 10:48:30;;;;;;;;;;;5.20;99.90;;;;;;2602422;54;20692;31
2022/04/02 10:51:04;;;;;;;;;;;5.30;99.90;;;;;;2621963;46;20831;31
2022/04/02 10:53:40;;;;;;;;;;;5.30;99.90;;;;;;2603445;54;19935;31
2022/04/02 10:56:19;;;;;;;;;;;5.30;99.90;;;;;;2603252;54;20756;31
2022/04/02 10:58:57;;;;;;;;;;;5.50;99.90;;;;;;2603096;54;19935;31
2022/04/02 11:01:36;;;;;;;;;;;5.90;99.90;;;;;;2621526;46;19984;31
2022/04/02 11:04:13;;;;;;;;;;;6.00;99.90;;;;;;2621357;46;19961;31
2022/04/02 11:06:51;;;;;;;;;;;6.10;99.90;;;;;;2603139;54;20801;31
2022/04/02 11:09:28;;;;;;;;;;;6.20;99.90;;;;;;2602263;54;19968;31
2022/04/02 11:12:07;;;;;;;;;;;6.10;99.90;;;;;;2603049;54;19938;31
2022/04/02 11:14:42;;;;;;;;;;;6.10;99.90;;;;;;2603042;54;19954;31
2022/04/02 11:17:32;;;;;;;;;;;6.00;99.90;;;;;;2603130;54;19960;31
2022/04/02 11:20:11;;;;;;;;;;;6.10;99.90;;;;;;2603202;54;19997;31
2022/04/02 11:23:09;;;;;;;;;;;6.20;99.90;;;;;;2621300;46;19934;31
2022/04/02 11:25:46;;;;;;;;;;;6.30;99.90;;;;;;2603118;54;20680;31
2022/04/02 11:28:21;;;;;;;;;;;6.40;99.90;;;;;;2614639;46;19941;31
2022/04/02 11:30:56;;;;;;;;;;;6.60;99.90;;;;;;2621539;46;19941;31
2022/04/02 11:33:36;;;;;;;;;;;6.70;99.90;;;;;;2603074;54;19935;31
2022/04/02 11:36:09;;;;;;;;;;;6.80;99.90;;;;;;2720466;39;22200;31
2022/04/02 11:38:46;;;;;;;;;;;6.90;99.90;;;;;;2603041;54;19941;31
2022/04/02 11:41:23;;;;;;;;;;;7.00;99.90;;;;;;2603179;54;19934;31
2022/04/02 11:44:05;;;;;;;;;;;7.10;99.90;;;;;;2602946;54;19935;31
2022/04/02 11:47:00;;;;;;;;;;;7.90;99.90;;;;;;2621580;46;20744;31
2022/04/02 11:49:39;;;;;;;;;;;7.30;99.90;;;;;;2602810;54;19943;31
2022/04/02 11:52:17;;;;;;;;;;;7.40;99.90;;;;;;2602823;54;19941;31
2022/04/02 11:55:06;;;;;;;;;;;7.90;99.90;;;;;;2646345;53;21453;31
2022/04/02 11:57:41;;;;;;;;;;;7.60;99.90;;;;;;2607045;54;20745;31
2022/04/02 12:00:18;;;;;;;;;;;7.60;99.90;;;;;;2623368;46;19949;31
2022/04/02 12:02:53;;;;;;;;;;;7.60;99.80;;;;;;2607273;54;19935;31
2022/04/02 12:05:37;;;;;;;;;;;7.60;99.60;;;;;;2607258;54;19935;31
2022/04/02 12:08:25;;;;;;;;;;;7.60;99.30;;;;;;2607127;54;20751;31
2022/04/02 12:11:05;;;;;;;;;;;7.60;99.80;;;;;;2607029;54;19934;31
2022/04/02 12:13:41;;;;;;;;;;;7.60;98.70;;;;;;2606885;54;20743;31
2022/04/02 12:16:17;;;;;;;;;;;7.60;98.30;;;;;;2625708;46;19946;31
2022/04/02 12:18:54;;;;;;;;;;;7.60;98.70;;;;;;2622666;46;19949;31
2022/04/02 12:21:35;;;;;;;;;;;7.50;97.20;;;;;;2607015;54;19992;31
2022/04/02 12:24:11;;;;;;;;;;;7.40;98.40;;;;;;2625451;46;19941;31
2022/04/02 12:26:49;;;;;;;;;;;7.50;98.20;;;;;;2607127;54;19938;31
2022/04/02 12:29:24;;;;;;;;;;;7.50;97.50;;;;;;2625717;46;19941;31
2022/04/02 12:32:00;;;;;;;;;;;7.50;97.60;;;;;;2606407;54;19941;31
2022/04/02 12:34:38;;;;;;;;;;;7.50;97.40;;;;;;2614803;46;19946;31
2022/04/02 12:37:14;;;;;;;;;;;7.50;95.80;;;;;;2624808;46;19946;31
2022/04/02 12:39:52;;;;;;;;;;;7.50;95.10;;;;;;2625579;46;20774;31
2022/04/02 12:42:30;;;;;;;;;;;7.50;95.70;;;;;;2606861;54;19934;31
2022/04/02 12:45:16;;;;;;;;;;;7.50;94.50;;;;;;2625533;46;19942;31
2022/04/02 12:48:01;;;;;;;;;;;7.50;95.00;;;;;;2606805;54;20677;31
2022/04/02 12:50:36;;;;;;;;;;;7.50;94.10;;;;;;2606946;54;20766;31
2022/04/02 12:53:12;;;;;;;;;;;7.40;93.70;;;;;;2606870;54;20647;31
2022/04/02 12:55:50;;;;;;;;;;;7.40;94.00;;;;;;2625627;46;19935;31
2022/04/02 12:58:32;;;;;;;;;;;7.40;93.10;;;;;;2606857;54;19943;31
2022/04/02 13:01:14;;;;;;;;;;;7.50;92.00;;;;;;2606693;54;20729;31
2022/04/02 13:03:53;;;;;;;;;;;7.50;92.10;;;;;;2606801;54;19940;31
2022/04/02 13:06:30;;;;;;;;;;;7.50;91.80;;;;;;2603127;54;19993;31
2022/04/02 13:09:05;;;;;;;;;;;7.60;90.90;;;;;;2603630;54;20743;31
2022/04/02 13:11:44;;;;;;;;;;;7.50;90.60;;;;;;2603346;54;20643;31
2022/04/02 13:14:20;;;;;;;;;;;7.60;88.90;;;;;;2603356;54;19998;31
2022/04/02 13:16:58;;;;;;;;;;;7.60;89.50;;;;;;2622003;46;19942;31
2022/04/02 13:22:20;;;;;;;;;;;7.70;89.90;;;;;;2603411;54;20745;31
2022/04/02 13:24:57;;;;;;;;;;;7.80;85.40;;;;;;2602433;54;19941;31
2022/04/02 13:27:48;;;;;;;;;;;7.80;85.10;;;;;;2603509;54;20497;31
2022/04/02 13:30:23;;;;;;;;;;;7.90;83.60;;;;;;2603223;54;19935;31
2022/04/02 13:33:12;;;;;;;;;;;8.00;83.10;;;;;;2602443;54;20791;31
2022/04/02 13:35:54;;;;;;;;;;;8.00;87.20;;;;;;2621383;46;20785;31
2022/04/02 13:38:41;;;;;;;;;;;8.10;86.10;;;;;;2603326;54;19942;31
2022/04/02 13:41:16;;;;;;;;;;;8.10;87.10;;;;;;2621405;46;20755;31
2022/04/02 13:43:55;;;;;;;;;;;8.10;84.80;;;;;;2603387;54;20829;31
2022/04/02 13:46:30;;;;;;;;;;;8.10;87.10;;;;;;2603349;54;19939;31
2022/04/02 13:49:11;;;;;;;;;;;8.00;85.10;;;;;;2602844;54;19950;31
2022/04/02 13:51:49;;;;;;;;;;;8.00;84.70;;;;;;2602533;54;20009;31
2022/04/02 13:54:26;;;;;;;;;;;8.00;84.90;;;;;;2602285;54;19938;31
2022/04/02 13:57:00;;;;;;;;;;;7.90;84.30;;;;;;2621946;46;20643;31
2022/04/02 13:59:36;;;;;;;;;;;8.00;85.30;;;;;;2602276;54;19949;31
2022/04/02 14:02:10;;;;;;;;;;;8.00;82.30;;;;;;2621731;46;19943;31
2022/04/02 14:04:48;;;;;;;;;;;8.00;82.10;;;;;;2619443;46;20751;31
2022/04/02 14:07:26;;;;;;;;;;;8.00;79.90;;;;;;2603085;54;19941;31
2022/04/02 14:10:00;;;;;;;;;;;8.00;81.80;;;;;;2602361;54;20738;31
2022/04/02 14:12:38;;;;;;;;;;;8.00;83.00;;;;;;2603055;54;19935;31
2022/04/02 14:15:16;;;;;;;;;;;8.10;87.80;;;;;;2603053;54;20770;31
2022/04/02 14:17:53;;;;;;;;;;;8.20;87.30;;;;;;2602039;54;19943;31
2022/04/02 14:20:31;;;;;;;;;;;8.30;86.40;;;;;;2603045;54;19935;31
2022/04/02 14:23:07;;;;;;;;;;;8.20;82.60;;;;;;2602358;54;19942;31
2022/04/02 14:25:47;;;;;;;;;;;8.00;84.10;;;;;;2603168;54;19941;31
2022/04/02 14:28:30;;;;;;;;;;;7.90;86.50;;;;;;2621493;46;20025;31
2022/04/02 14:31:23;;;;;;;;;;;7.90;86.60;;;;;;2604922;46;20751;31
2022/04/02 14:34:16;;;;;;;;;;;7.80;85.60;;;;;;2602968;54;20544;31
2022/04/02 14:37:07;;;;;;;;;;;7.70;85.60;;;;;;2603077;54;20769;31
2022/04/02 14:39:56;;;;;;;;;;;7.60;83.20;;;;;;2602957;54;20800;31
2022/04/02 14:42:48;;;;;;;;;;;7.50;81.80;;;;;;2607327;46;21813;31
2022/04/02 14:45:26;;;;;;;;;;;7.40;81.50;;;;;;2603114;54;20006;31
2022/04/02 14:48:18;;;;;;;;;;;7.40;81.90;;;;;;2603052;54;19941;31
2022/04/02 14:51:04;;;;;;;;;;;7.30;81.90;;;;;;2602991;54;19941;31
2022/04/02 14:54:06;;;;;;;;;;;7.30;80.40;;;;;;2621615;46;19946;31
2022/04/02 14:56:55;;;;;;;;;;;7.30;81.50;;;;;;2621422;46;19941;31
2022/04/02 14:59:44;;;;;;;;;;;7.20;81.70;;;;;;2603142;54;20011;31
2022/04/02 15:02:37;;;;;;;;;;;7.20;81.00;;;;;;2602996;54;20725;31
2022/04/02 15:05:39;;;;;;;;;;;7.20;83.10;;;;;;2603043;54;19939;31
2022/04/02 15:08:32;;;;;;;;;;;7.10;82.20;;;;;;2602906;54;19935;31
2022/04/02 15:11:08;;;;;;;;;;;7.10;83.50;;;;;;2602738;54;19942;31
2022/04/02 15:13:43;;;;;;;;;;;7.10;83.10;;;;;;2619595;46;20017;31
2022/04/02 15:16:26;;;;;;;;;;;7.10;83.20;;;;;;2621148;46;20096;31
2022/04/02 15:19:03;;;;;;;;;;;7.10;83.20;;;;;;2602749;54;19935;31
2022/04/02 15:21:44;;;;;;;;;;;7.10;83.50;;;;;;2621411;46;19934;31
2022/04/02 15:24:23;;;;;;;;;;;7.00;84.80;;;;;;2602916;54;19935;31
2022/04/02 15:27:00;;;;;;;;;;;7.00;83.20;;;;;;2602961;54;19977;31
2022/04/02 15:29:33;;;;;;;;;;;7.00;84.10;;;;;;2621359;46;19946;31
2022/04/02 15:32:31;;;;;;;;;;;7.00;84.20;;;;;;2621219;46;19939;31
2022/04/02 15:35:07;;;;;;;;;;;7.00;83.80;;;;;;2602641;54;19943;31
2022/04/02 15:37:43;;;;;;;;;;;7.00;84.70;;;;;;2602780;54;21833;31
2022/04/02 15:40:19;;;;;;;;;;;7.00;85.20;;;;;;2621503;46;20744;31
2022/04/02 15:43:06;;;;;;;;;;;7.00;85.70;;;;;;2603090;54;20650;31
2022/04/02 15:45:42;;;;;;;;;;;7.00;84.10;;;;;;2602161;47;19943;31
2022/04/02 15:48:17;;;;;;;;;;;7.00;85.60;;;;;;2603063;54;20768;31
2022/04/02 15:50:53;;;;;;;;;;;7.00;84.00;;;;;;2621271;46;20755;31
2022/04/02 15:53:38;;;;;;;;;;;7.00;82.70;;;;;;2601955;54;19949;31
2022/04/02 15:56:12;;;;;;;;;;;7.00;81.90;;;;;;2602713;54;19935;31
2022/04/02 15:58:46;;;;;;;;;;;6.90;81.80;;;;;;2701248;39;21442;31
2022/04/02 16:01:33;;;;;;;;;;;7.00;82.40;;;;;;2701381;39;20385;31
2022/04/02 16:04:19;;;;;;;;;;;7.00;81.80;;;;;;2621043;47;19941;31
2022/04/02 16:06:52;;;;;;;;;;;7.00;82.40;;;;;;2701374;39;20976;31
2022/04/02 16:09:44;;;;;;;;;;;6.90;83.50;;;;;;2602104;54;20864;31